Terminal Aerodrome Forecast
Issued by NWS

Home | Current Version | Previous Version | Text Only | Print | Product List | Glossary On
Versions: 1 2 3 4 5 6 7 8 9 10 11 12 13 14 15 16 17 18 19 20 21 22 23 24 25 26 27
000
FTUS46 KSEW 111220 AAA
TAFHQM
TAF AMD
KHQM 111220Z 1112/1212 18009KT P6SM VCSH SCT035
      TEMPO 1112/1116 22013KT -SHRA OVC035
     FM111600 18009KT P6SM -SHRA FEW020 OVC035
     FM111800 22015KT P6SM -SHRA SCT018 OVC030
      TEMPO 1120/1124 22015G25KT 3SM SHRA BKN018 OVC030
     FM120000 22012KT P6SM -SHRA BKN035 OVC050
     FM120600 24010KT P6SM VCSH SCT035 BKN050 PROB30 1206/1212 -SHRA
      OVC035=

USA.gov is the U.S. government's official web portal to all federal, state and local government web resources and services.